createdAt,value
2014-11-10T00:00:55.494Z,0
2014-11-10T00:07:56.042Z,0
2014-11-10T00:13:56.524Z,0
2014-11-10T00:20:57.072Z,0
2014-11-10T00:25:57.520Z,0
2014-11-10T00:32:58.068Z,0
2014-11-10T00:39:58.616Z,0
2014-11-10T00:45:59.097Z,0
2014-11-10T00:51:59.597Z,0
2014-11-10T00:57:00.077Z,0
2014-11-10T01:08:00.978Z,0
2014-11-10T01:15:01.525Z,0
2014-11-10T01:21:02.022Z,0
2014-11-10T01:27:02.521Z,0
2014-11-10T01:33:03.003Z,0
2014-11-10T01:39:03.502Z,0
2014-11-10T01:44:03.950Z,0
2014-11-10T01:49:04.384Z,0
2014-11-10T01:54:04.834Z,0
2014-11-10T02:00:05.332Z,0
2014-11-10T02:07:05.924Z,0
2014-11-10T02:13:06.464Z,0
2014-11-10T02:19:06.971Z,0
2014-11-10T02:26:07.523Z,0
2014-11-10T02:34:08.103Z,0
2014-11-10T02:39:08.553Z,0
2014-11-10T02:44:09.001Z,0
2014-11-10T02:49:09.435Z,0
2014-11-10T02:56:09.998Z,0
2014-11-10T03:02:10.481Z,0
2014-11-10T03:09:11.028Z,0
2014-11-10T03:15:11.526Z,0
2014-11-10T03:23:12.122Z,0
2014-11-10T03:30:12.654Z,0
2014-11-10T03:35:13.103Z,0
2014-11-10T03:42:13.651Z,0
2014-11-10T03:48:14.149Z,0
2014-11-10T06:18:35.729Z,0
2014-11-10T06:23:36.179Z,0
2014-11-10T06:29:36.662Z,1
2014-11-10T06:34:37.110Z,1
2014-11-10T06:40:37.609Z,2
2014-11-10T06:45:38.042Z,5
2014-11-10T06:51:38.541Z,6
2014-11-10T06:57:39.038Z,13
2014-11-10T07:02:39.471Z,18
2014-11-10T07:08:39.970Z,28
2014-11-10T07:13:40.450Z,34
2014-11-10T07:18:40.853Z,41
2014-11-10T07:24:41.335Z,64
2014-11-10T07:30:41.834Z,61
2014-11-10T07:35:42.282Z,68
2014-11-10T07:41:42.765Z,68
2014-11-10T22:24:01.919Z,0
2014-11-10T22:29:01.633Z,0
2014-11-10T22:34:02.254Z,0
2014-11-10T22:39:02.547Z,0
2014-11-10T22:45:03.029Z,0
2014-11-10T22:53:03.626Z,0
2014-11-10T23:00:04.188Z,0
2014-11-10T23:08:04.770Z,0
2014-11-10T23:14:05.268Z,0
2014-11-10T23:21:05.815Z,0
2014-11-10T23:28:06.363Z,0
2014-11-10T23:35:06.910Z,0
2014-11-10T23:42:07.457Z,0
2014-11-10T23:47:07.891Z,0
2014-11-10T23:53:08.405Z,0
2014-11-10T23:59:08.871Z,0
